• Join FlightAware (Why Join?)
  • Login
  • US Flag 
07:51AM EDT


 

Airport Tracker/Info


-or-


 

Live Flight TrackerFlight Track Log ✈ SWA1798 ✈ 14-Sep-2013 ✈ KMCO - KMHT

Flight Track Log - Related Links

Times and Time Zones

All times are in EDT time to prevent confusion due to time zone crossing. See the SWA1798 flight status page for this flight to view local times or setup timezone preferences in your user account.

Time Position Orientation Groundspeed Altitude Reporting Facility
EDT Latitude Longitude Course Direction KTS MPH feet Rate Location/Type
11:08AM 28.4167 -81.3000 156° South 176 203 400  Level Orlando TRACON
11:09AM 28.3500 -81.2667 156° South 229 264 2,500 1,920 Climbing Orlando TRACON
11:10AM 28.3333 -81.2167 111° Southeast 261 300 4,500 2,820 Climbing Orlando TRACON
11:11AM 28.4167 -81.2167 360° North 282 325 7,900 2,700 Climbing Orlando TRACON
11:13AM 28.5547 -81.2525 347° North 312 359 11,800 2,400 Climbing Jacksonville Center
11:14AM 28.6594 -81.2792 347° North 342 394 14,300 2,400 Climbing Jacksonville Center
11:15AM 28.7683 -81.3081 347° North 375 432 16,700 2,280 Climbing Jacksonville Center
11:16AM 28.8856 -81.3369 348° North 400 460 18,900 2,160 Climbing Jacksonville Center
11:17AM 29.0047 -81.3661 348° North 419 482 21,100 2,160 Climbing Jacksonville Center
11:18AM 29.1283 -81.3950 348° North 439 505 23,300 2,040 Climbing Jacksonville Center
11:19AM 29.2558 -81.4072 355° North 451 519 25,200 1,800 Climbing Jacksonville Center
11:20AM 29.3875 -81.4197 355° North 461 531 27,000 1,920 Climbing Jacksonville Center
11:21AM 29.5111 -81.4536 347° North 461 531 29,100 1,800 Climbing Jacksonville Center
11:22AM 29.6367 -81.4900 346° North 461 531 30,600 4,980 Climbing Jacksonville Center
11:23AM 29.7644 -81.5264 346° North 461 531 39,000 1,800 Climbing Jacksonville Center
11:24AM 29.8897 -81.5414 354° North 466 536 34,200 -1,620 Descending Jacksonville Center
11:25AM 30.0211 -81.5228 North 466 536 35,800 1,380 Climbing Jacksonville Center
11:26AM 30.1525 -81.5017 North 460 529 37,100 1,200 Climbing Jacksonville Center
11:27AM 30.2797 -81.4831 North 460 529 38,300 900 Climbing Jacksonville Center
11:28AM 30.4067 -81.4619 North 460 529 39,000 300 Climbing Jacksonville Center
11:29AM 30.5319 -81.4456 North 460 529 39,000  Level Jacksonville Center
11:30AM 30.6569 -81.4267 North 455 524 39,000  Level Jacksonville Center
11:31AM 30.7819 -81.4078 North 455 524 39,000  Level Jacksonville Center
11:32AM 30.9050 -81.3892 North 450 518 39,000  Level Jacksonville Center
11:33AM 31.0278 -81.3725 North 445 512 39,000  Level Jacksonville Center
11:34AM 31.1444 -81.3536 North 445 512 39,000  Level Jacksonville Center
11:35AM 31.2697 -81.3369 North 450 518 39,000  Level Jacksonville Center
11:36AM 31.3906 -81.3156 North 434 499 39,000  Level Jacksonville Center
11:37AM 31.5133 -81.2964 North 441 507 39,000  Level Jacksonville Center
11:38AM 31.6489 -81.2744 North 447 514 39,000  Level Jacksonville Center
11:39AM 31.7739 -81.2553 North 447 514 39,000  Level Jacksonville Center
11:40AM 31.8844 -81.2411 North 447 514 39,000  Level Jacksonville Center
11:41AM 32.0114 -81.2217 North 447 514 39,000  Level Jacksonville Center
11:42AM 32.1344 -81.1997 North 447 514 39,000  Level Jacksonville Center
11:43AM 32.2483 -81.1289 28° Northeast 437 503 39,000  Level Jacksonville Center
11:44AM 32.3578 -81.0481 32° Northeast 448 516 39,000  Level Jacksonville Center
11:45AM 32.4672 -80.9694 31° Northeast 453 521 39,000  Level Jacksonville Center
11:46AM 32.5786 -80.8858 32° Northeast 464 534 39,000  Level Jacksonville Center
11:47AM 32.6900 -80.8069 31° Northeast 464 534 39,000  Level Jacksonville Center
11:48AM 32.8014 -80.7250 32° Northeast 464 534 39,000  Level Jacksonville Center
11:49AM 32.9106 -80.6458 31° Northeast 464 534 39,000  Level Jacksonville Center
11:50AM 33.0239 -80.5661 31° Northeast 464 534 39,000  Level Jacksonville Center
11:51AM 33.1353 -80.4864 31° Northeast 464 534 39,000  Level Jacksonville Center
11:52AM 33.2586 -80.3961 31° Northeast 464 534 39,000  Level Jacksonville Center
11:53AM 33.3656 -80.3136 33° Northeast 464 534 39,000  Level Jacksonville Center
11:54AM 33.4744 -80.2333 32° Northeast 459 528 39,000  Level Jacksonville Center
11:55AM 33.5772 -80.1553 32° Northeast 453 521 39,000  Level Jacksonville Center
11:56AM 33.6861 -80.0744 32° Northeast 447 514 39,000  Level Jacksonville Center
11:57AM 33.7925 -79.9911 33° Northeast 447 514 39,000  Level Jacksonville Center
11:58AM 33.9014 -79.9100 32° Northeast 452 520 39,000  Level Jacksonville Center
11:59AM 34.0100 -79.8286 32° Northeast 452 520 39,000  Level Jacksonville Center
12:00PM 34.1806 -79.6961 33° Northeast 457 526 39,000  Level Washington Center
12:01PM 34.3000 -79.6242 26° Northeast 463 533 39,000  Level Washington Center
12:02PM 34.4167 -79.5619 24° Northeast 463 533 39,000  Level Washington Center
12:03PM 34.5356 -79.4997 23° Northeast 457 526 39,000  Level Washington Center
12:04PM 34.6547 -79.4347 24° Northeast 457 526 39,000  Level Washington Center
12:05PM 34.7756 -79.3747 22° Northeast 457 526 39,000  Level Washington Center
12:06PM 34.8944 -79.3092 24° Northeast 462 532 39,000  Level Washington Center
12:07PM 35.0153 -79.2464 23° Northeast 462 532 39,000  Level Washington Center
12:08PM 35.1361 -79.1833 23° Northeast 462 532 39,000  Level Washington Center
12:09PM 35.2528 -79.1222 23° Northeast 462 532 39,000  Level Washington Center
12:10PM 35.3736 -79.0589 23° Northeast 462 532 39,000  Level Washington Center
12:11PM 35.4944 -78.9928 24° Northeast 462 532 39,000  Level Washington Center
12:12PM 35.6256 -78.9242 23° Northeast 462 532 39,000  Level Washington Center
12:13PM 35.7442 -78.8600 24° Northeast 462 532 39,000  Level Washington Center
12:14PM 35.8650 -78.7933 24° Northeast 462 532 39,000  Level Washington Center
12:15PM 35.9694 -78.7050 34° Northeast 457 526 39,000  Level Washington Center
12:16PM 36.0528 -78.6289 36° Northeast 448 516 39,000  Level Washington Center
12:17PM 36.1789 -78.5178 35° Northeast 454 522 39,000  Level Washington Center
12:18PM 36.2792 -78.4236 37° Northeast 449 517 39,000  Level Washington Center
12:19PM 36.3714 -78.3136 44° Northeast 454 522 39,000  Level Washington Center
12:20PM 36.4636 -78.2006 45° Northeast 454 522 39,000  Level Washington Center
12:21PM 36.5494 -78.0894 46° Northeast 454 522 39,000  Level Washington Center
12:22PM 36.6394 -77.9758 45° Northeast 449 517 39,000  Level Washington Center
12:23PM 36.7247 -77.8722 44° Northeast 455 524 39,000  Level Washington Center
12:24PM 36.8289 -77.7742 37° Northeast 455 524 39,000  Level Washington Center
12:25PM 36.9306 -77.6808 36° Northeast 460 529 39,000  Level Washington Center
12:26PM 37.0386 -77.5875 35° Northeast 460 529 39,000  Level Washington Center
12:27PM 37.1486 -77.4914 35° Northeast 471 542 39,000  Level Washington Center
12:28PM 37.2544 -77.3950 36° Northeast 471 542 39,000  Level Washington Center
12:29PM 37.3600 -77.3033 35° Northeast 466 536 39,000  Level Washington Center
12:30PM 37.4783 -77.1986 35° Northeast 471 542 39,000  Level Washington Center
12:31PM 37.5881 -77.0986 36° Northeast 476 548 39,000  Level Washington Center
12:32PM 37.6936 -77.0011 36° Northeast 476 548 39,000  Level Washington Center
12:33PM 37.8011 -76.9033 36° Northeast 476 548 39,000  Level Washington Center
12:34PM 37.9042 -76.8078 36° Northeast 471 542 39,000  Level Washington Center
12:35PM 38.0094 -76.7119 36° Northeast 466 536 39,000  Level Washington Center
12:36PM 38.1147 -76.6131 36° Northeast 461 531 39,000  Level Washington Center
12:37PM 38.2197 -76.5142 36° Northeast 461 531 39,000  Level Washington Center
12:38PM 38.3119 -76.4333 35° Northeast 457 526 39,000  Level Washington Center
12:39PM 38.4169 -76.3336 37° Northeast 457 526 39,000  Level Washington Center
12:40PM 38.5197 -76.2364 36° Northeast 464 534 39,000  Level Washington Center
12:41PM 38.6306 -76.1444 33° Northeast 459 528 39,000  Level Washington Center
12:42PM 38.7331 -76.0442 37° Northeast 459 528 39,000  Level Washington Center
12:43PM 38.8356 -75.9461 37° Northeast 459 528 39,000  Level Washington Center
12:44PM 38.9422 -75.8453 36° Northeast 459 528 39,000  Level Washington Center
12:45PM 39.0467 -75.7467 36° Northeast 459 528 39,000  Level Washington Center
12:46PM 39.1508 -75.6478 36° Northeast 459 528 39,000  Level Washington Center
12:47PM 39.2550 -75.5461 37° Northeast 459 528 39,000  Level Washington Center
12:48PM 39.3614 -75.4467 36° Northeast 459 528 39,000  Level Washington Center
12:49PM 39.4653 -75.3442 37° Northeast 459 528 39,000  Level Washington Center
12:50PM 39.5714 -75.2442 36° Northeast 459 528 39,000  Level Washington Center
12:53PM 39.8211 -74.9953 37° Northeast 471 542 39,000  Level New York Center
12:54PM 39.9250 -74.8881 38° Northeast 477 549 39,000  Level New York Center
12:55PM 40.0275 -74.7531 45° Northeast 477 549 39,000  Level New York Center
12:56PM 40.1194 -74.6225 47° Northeast 472 543 39,000  Level New York Center
12:57PM 40.2211 -74.5739 20° North 471 542 39,000  Level New York Center
12:58PM 40.3664 -74.5275 14° North 461 531 39,000  Level New York Center
12:59PM 40.4944 -74.4936 11° North 468 539 39,000  Level New York Center
01:01PM 40.7261 -74.4228 13° North 467 537 39,000  Level Boston Center
01:02PM 40.8539 -74.3856 12° North 473 544 39,000  Level Boston Center
01:03PM 40.9983 -74.3514 10° North 473 544 39,000  Level Boston Center
01:04PM 41.1281 -74.3111 13° North 473 544 39,000  Level Boston Center
01:05PM 41.2581 -74.2736 12° North 467 537 39,000  Level Boston Center
01:06PM 41.3711 -74.2325 15° North 461 531 39,000  Level Boston Center
01:07PM 41.5053 -74.1919 13° North 475 547 39,000 -720 Level Boston Center
01:08PM 41.6456 -74.1514 12° North 482 555 37,700 -2,100 Descending Boston Center
01:09PM 41.7733 -74.1131 13° North 470 541 34,900 -2,460 Descending Boston Center
01:10PM 41.8883 -74.0769 13° North 465 535 32,800 -1,560 Descending Boston Center
01:11PM 42.0139 -74.0383 13° North 465 535 31,800 -1,440 Descending Boston Center
01:12PM 42.1458 -73.9969 13° North 454 522 30,000 -1,920 Descending Boston Center
01:13PM 42.2672 -73.9606 13° North 449 517 28,000 -1,980 Descending Boston Center
01:14PM 42.3825 -73.9242 13° North 438 504 26,100 -1,500 Descending Boston Center
01:15PM 42.4650 -73.8136 45° Northeast 401 461 25,100 -1,020 Descending Boston Center
01:16PM 42.4939 -73.6481 77° East 398 458 24,100 -900 Descending Boston Center
01:17PM 42.5247 -73.4853 76° East 414 476 23,400 -780 Descending Boston Center
01:18PM 42.5575 -73.3139 75° East 427 491 22,600 -840 Descending Boston Center
01:19PM 42.5878 -73.1536 76° East 448 516 21,800 -840 Descending Boston Center
01:20PM 42.6219 -72.9931 74° East 437 503 20,900 -900 Descending Boston Center
01:21PM 42.6519 -72.8381 75° East 428 493 20,100 -1,380 Descending Boston Center
01:22PM 42.6814 -72.6858 75° East 421 484 18,300 -2,040 Descending Boston Center
01:23PM 42.7089 -72.5361 76° East 407 468 16,000 -2,280 Descending Boston Center
01:24PM 42.7358 -72.3919 76° East 396 456 13,800 -2,100 Descending Boston Center
01:25PM 42.7628 -72.2533 75° East 390 449 11,900 -1,680 Descending Boston Center
01:26PM 42.7856 -72.1261 76° East 356 410 10,500 -1,200 Descending Boston Center
01:27PM 42.8061 -72.0100 76° East 323 372 9,600 -1,200 Descending Boston Center
01:28PM 42.8200 -71.8994 80° East 303 349 8,200 -1,320 Descending Boston Center
01:29PM 42.8133 -71.7919 95° East 290 334 7,000 -1,380 Descending Boston Center
01:30PM 42.8044 -71.6875 97° East 290 334 5,400 -1,440 Descending Boston Center
01:31PM 42.7994 -71.5856 94° East 284 327 4,200 -1,020 Descending Boston Center
01:32PM 42.7903 -71.4953 98° East 250 288 3,400 -660 Descending Boston Center
01:33PM 42.7917 -71.4131 89° East 228 262 2,900 -720 Descending Boston Center
01:34PM 42.8225 -71.3728 44° Northeast 154 177 2,000 -660 Descending Boston Center
01:35PM 42.8603 -71.3892 342° North 111 128 1,600 -600 Descending Boston Center
01:36PM 42.8958 -71.4114 335° Northwest 122 140 800 -660 Descending Boston Center
01:37PM 42.9231 -71.4278 336° Northwest 133 153 400 4,140 Descending Boston Center
01:38PM 42.9547 -71.4500 333° Northwest 133 153 9,000 8,580 Climbing Boston Center